createdAt,value
2022-09-15T00:00:07.087Z,957.89
2022-09-15T00:01:06.811Z,957.91
2022-09-15T00:02:06.843Z,957.86
2022-09-15T00:03:07.075Z,957.92
2022-09-15T00:04:06.656Z,957.91
2022-09-15T00:05:06.755Z,957.90
2022-09-15T00:06:06.475Z,957.85
2022-09-15T00:07:06.475Z,957.84
2022-09-15T00:08:06.624Z,957.81
2022-09-15T00:09:07.682Z,957.73
2022-09-15T00:10:06.434Z,957.72
2022-09-15T00:11:06.400Z,957.75
2022-09-15T00:12:06.882Z,957.62
2022-09-15T00:13:06.454Z,957.68
2022-09-15T00:14:06.137Z,957.64
2022-09-15T00:15:06.347Z,957.55
2022-09-15T00:16:05.993Z,957.56
2022-09-15T00:17:07.109Z,957.60
2022-09-15T00:18:06.138Z,957.57
2022-09-15T00:19:06.062Z,957.52
2022-09-15T00:20:05.818Z,957.53
2022-09-15T00:21:06.050Z,957.55
2022-09-15T00:22:05.739Z,957.53
2022-09-15T00:23:05.706Z,957.38
2022-09-15T00:24:05.672Z,957.43
2022-09-15T00:25:05.876Z,957.45
2022-09-15T00:26:05.576Z,957.41
2022-09-15T00:27:05.603Z,957.36
2022-09-15T00:28:05.489Z,957.37
2022-09-15T00:29:05.906Z,957.46
2022-09-15T00:30:05.398Z,957.39
2022-09-15T00:31:05.561Z,957.34
2022-09-15T00:32:05.319Z,957.33
2022-09-15T00:33:05.539Z,957.40
2022-09-15T00:34:05.530Z,957.43
2022-09-15T00:35:05.214Z,957.37
2022-09-15T00:36:05.334Z,957.46
2022-09-15T00:37:05.105Z,957.47
2022-09-15T00:38:06.180Z,957.35
2022-09-15T00:39:05.023Z,957.37
2022-09-15T00:40:05.225Z,957.27
2022-09-15T00:41:05.224Z,957.31
2022-09-15T00:42:05.179Z,957.21
2022-09-15T00:43:04.857Z,957.29
2022-09-15T00:44:04.995Z,957.24
2022-09-15T00:45:04.772Z,957.26
2022-09-15T00:46:04.786Z,957.30
2022-09-15T00:47:18.736Z,957.24
2022-09-15T00:48:04.644Z,957.25
2022-09-15T00:49:04.824Z,957.22
2022-09-15T00:50:04.827Z,957.27
2022-09-15T00:51:04.555Z,957.30
2022-09-15T00:52:04.633Z,957.25
2022-09-15T00:53:04.700Z,957.23
2022-09-15T00:54:04.652Z,957.28
2022-09-15T00:55:04.378Z,957.35
2022-09-15T00:56:04.513Z,957.32
2022-09-15T00:57:05.701Z,957.35
2022-09-15T00:58:04.231Z,957.44
2022-09-15T00:59:05.338Z,957.37
2022-09-15T01:00:04.335Z,957.41
2022-09-15T01:01:04.210Z,957.34
2022-09-15T01:02:04.150Z,957.47
2022-09-15T01:03:04.739Z,957.27
2022-09-15T01:04:04.075Z,957.24
2022-09-15T01:05:04.272Z,957.17
2022-09-15T01:06:03.884Z,957.16
2022-09-15T01:07:04.147Z,957.22
2022-09-15T01:08:03.837Z,957.17
2022-09-15T01:09:05.260Z,957.16
2022-09-15T01:10:03.801Z,957.17
2022-09-15T01:11:04.199Z,957.07
2022-09-15T01:12:03.638Z,957.11
2022-09-15T01:13:03.789Z,957.16
2022-09-15T01:14:04.000Z,957.14
2022-09-15T01:15:03.695Z,957.13
2022-09-15T01:16:04.032Z,957.31
2022-09-15T01:17:03.468Z,957.19
2022-09-15T01:18:03.383Z,957.23
2022-09-15T01:19:03.506Z,957.22
2022-09-15T01:20:03.340Z,957.23
2022-09-15T01:21:03.517Z,957.18
2022-09-15T01:22:03.217Z,957.19
2022-09-15T01:23:04.412Z,957.15
2022-09-15T01:24:04.433Z,957.18
2022-09-15T01:25:03.101Z,957.11
2022-09-15T01:26:03.376Z,957.09
2022-09-15T01:27:13.861Z,957.08
2022-09-15T01:28:02.973Z,957.02
2022-09-15T01:29:03.253Z,957.03
2022-09-15T01:30:02.884Z,957.00
2022-09-15T01:31:02.975Z,957.07
2022-09-15T01:32:02.889Z,957.10
2022-09-15T01:33:03.261Z,957.11
2022-09-15T01:34:02.729Z,957.11
2022-09-15T01:35:03.043Z,957.10
2022-09-15T01:36:02.817Z,957.11
2022-09-15T01:37:02.820Z,957.13
2022-09-15T01:38:02.559Z,957.10
2022-09-15T01:39:02.511Z,957.08
2022-09-15T01:40:02.719Z,957.01
2022-09-15T01:41:03.079Z,956.99
2022-09-15T01:42:03.678Z,956.99
2022-09-15T01:43:02.363Z,956.94
2022-09-15T01:44:02.307Z,956.96
2022-09-15T01:45:02.257Z,957.01
2022-09-15T01:46:02.959Z,956.98
2022-09-15T01:47:02.212Z,956.96
2022-09-15T01:48:02.289Z,957.02
2022-09-15T01:49:02.088Z,957.00
2022-09-15T01:50:02.511Z,957.00
2022-09-15T01:51:02.306Z,956.87
2022-09-15T01:52:03.401Z,956.91
2022-09-15T01:53:02.125Z,956.94
2022-09-15T01:54:01.887Z,956.94
2022-09-15T01:55:01.860Z,956.95
2022-09-15T01:56:01.813Z,956.92
2022-09-15T01:57:02.148Z,956.90
2022-09-15T01:58:01.717Z,956.99
2022-09-15T01:59:03.119Z,956.94
2022-09-15T02:00:01.626Z,956.98
2022-09-15T02:01:01.649Z,956.96
2022-09-15T02:02:01.799Z,956.95
2022-09-15T02:03:01.549Z,956.92
2022-09-15T02:04:02.606Z,956.87
2022-09-15T02:05:01.416Z,956.94
2022-09-15T02:06:01.386Z,956.88
2022-09-15T02:07:01.346Z,956.84
2022-09-15T02:08:01.602Z,956.83
2022-09-15T02:09:01.459Z,956.83
2022-09-15T02:10:01.417Z,956.84
2022-09-15T02:11:01.173Z,956.82
2022-09-15T02:12:01.134Z,956.90
2022-09-15T02:13:01.498Z,956.82
2022-09-15T02:14:01.857Z,956.81
2022-09-15T02:15:02.280Z,956.93
2022-09-15T02:16:01.071Z,956.90
2022-09-15T02:17:00.917Z,956.91
2022-09-15T02:18:01.077Z,956.96
2022-09-15T02:19:00.832Z,956.88
2022-09-15T02:20:01.077Z,956.91
2022-09-15T02:21:00.748Z,956.87
2022-09-15T02:22:00.709Z,956.93
2022-09-15T02:23:00.664Z,956.85
2022-09-15T02:24:00.902Z,956.83
2022-09-15T02:25:00.690Z,956.99
2022-09-15T02:26:00.821Z,956.84
2022-09-15T02:27:00.501Z,956.86
2022-09-15T02:28:00.460Z,957.04
2022-09-15T02:29:00.633Z,956.94
2022-09-15T02:30:00.694Z,956.91
2022-09-15T02:31:00.654Z,956.96
2022-09-15T02:32:03.708Z,956.93
2022-09-15T02:33:00.245Z,956.95
2022-09-15T02:34:00.203Z,956.93
2022-09-15T02:35:00.548Z,956.93
2022-09-15T02:36:00.175Z,956.89
2022-09-15T02:37:00.279Z,956.87
2022-09-15T02:38:00.039Z,956.86
2022-09-15T02:38:59.996Z,956.86
2022-09-15T02:40:00.479Z,956.89
2022-09-15T02:40:59.913Z,956.89
2022-09-15T02:42:00.112Z,956.89
2022-09-15T02:42:59.831Z,956.83
2022-09-15T02:43:59.786Z,956.80
2022-09-15T02:44:59.744Z,956.79
2022-09-15T02:46:00.208Z,956.82
2022-09-15T02:46:59.666Z,956.77
2022-09-15T02:47:59.747Z,956.86
2022-09-15T02:48:59.578Z,956.95
2022-09-15T02:49:59.664Z,956.93
2022-09-15T02:50:59.494Z,956.80
2022-09-15T02:51:59.674Z,956.87
2022-09-15T02:52:59.410Z,956.87
2022-09-15T02:53:59.588Z,956.86
2022-09-15T02:54:59.494Z,956.85
2022-09-15T02:55:59.289Z,956.86
2022-09-15T02:56:59.298Z,956.90
2022-09-15T02:57:59.239Z,956.91
2022-09-15T02:58:59.309Z,956.94
2022-09-15T02:59:59.321Z,956.89
2022-09-15T03:00:59.112Z,956.83
2022-09-15T03:01:59.180Z,956.83
2022-09-15T03:02:59.008Z,956.83
2022-09-15T03:03:58.980Z,956.82
2022-09-15T03:04:58.954Z,956.84
2022-09-15T03:05:58.870Z,956.85
2022-09-15T03:06:58.961Z,956.84
2022-09-15T03:07:58.783Z,956.86
2022-09-15T03:08:58.776Z,956.85
2022-09-15T03:09:58.834Z,956.87
2022-09-15T03:10:58.658Z,956.80
2022-09-15T03:11:58.616Z,956.87
2022-09-15T03:12:58.803Z,956.87
2022-09-15T03:13:58.537Z,956.90
2022-09-15T03:14:58.614Z,956.87
2022-09-15T03:15:58.509Z,956.93
2022-09-15T03:16:58.406Z,956.90
2022-09-15T03:17:58.428Z,956.89
2022-09-15T03:18:58.324Z,956.95
2022-09-15T03:19:58.448Z,956.94
2022-09-15T03:20:58.243Z,956.94
2022-09-15T03:21:58.315Z,956.96
2022-09-15T03:22:58.164Z,956.91
2022-09-15T03:23:58.270Z,956.84
2022-09-15T03:24:58.071Z,956.85
2022-09-15T03:25:58.079Z,956.91
2022-09-15T03:26:57.996Z,956.83
2022-09-15T03:27:57.973Z,956.87
2022-09-15T03:28:57.994Z,956.78
2022-09-15T03:29:57.879Z,956.79
2022-09-15T03:30:58.011Z,956.85
2022-09-15T03:31:57.852Z,956.85
2022-09-15T03:32:57.782Z,956.83
2022-09-15T03:33:59.062Z,956.88
2022-09-15T03:34:58.611Z,956.96
2022-09-15T03:35:57.840Z,956.89
2022-09-15T03:36:57.580Z,956.92
2022-09-15T03:37:57.532Z,956.92
2022-09-15T03:38:57.494Z,956.94
2022-09-15T03:39:57.805Z,956.98
2022-09-15T03:40:57.409Z,957.02
2022-09-15T03:41:57.580Z,956.86
2022-09-15T03:42:57.325Z,956.94
2022-09-15T03:43:57.288Z,956.92
2022-09-15T03:44:57.400Z,956.88
2022-09-15T03:45:57.549Z,956.90
2022-09-15T03:46:57.207Z,956.87
2022-09-15T03:47:57.119Z,956.85
2022-09-15T03:48:57.071Z,956.86
2022-09-15T03:49:57.036Z,956.84
2022-09-15T03:50:57.045Z,956.86
2022-09-15T03:51:56.969Z,956.92
2022-09-15T03:52:58.901Z,956.90
2022-09-15T03:53:57.116Z,956.90
2022-09-15T03:54:56.827Z,956.90
2022-09-15T03:55:56.904Z,956.90
2022-09-15T03:56:56.744Z,956.81
2022-09-15T03:57:56.890Z,956.80
2022-09-15T03:58:56.666Z,956.83
2022-09-15T03:59:56.640Z,956.84
2022-09-15T04:00:56.618Z,956.82
2022-09-15T04:01:57.758Z,956.91
2022-09-15T04:02:56.496Z,956.82
2022-09-15T04:03:56.509Z,956.83
2022-09-15T04:04:56.596Z,956.84
2022-09-15T04:05:56.370Z,956.86
2022-09-15T04:06:56.534Z,956.82
2022-09-15T04:07:56.287Z,956.80
2022-09-15T04:08:56.341Z,956.81
2022-09-15T04:09:56.204Z,956.80
2022-09-15T04:10:56.335Z,956.85
2022-09-15T04:11:56.156Z,956.90
2022-09-15T04:12:56.076Z,956.91
2022-09-15T04:13:58.267Z,956.87
2022-09-15T04:14:55.992Z,956.86
2022-09-15T04:15:58.116Z,956.89
2022-09-15T04:16:56.046Z,956.89
2022-09-15T04:17:56.002Z,956.86
2022-09-15T04:18:55.830Z,956.89
2022-09-15T04:19:56.016Z,956.93
2022-09-15T04:20:55.742Z,956.88
2022-09-15T04:21:55.707Z,956.87
2022-09-15T04:22:55.662Z,956.84
2022-09-15T04:23:55.840Z,956.87
2022-09-15T04:24:55.575Z,956.88
2022-09-15T04:25:55.852Z,956.93
2022-09-15T04:26:55.496Z,956.84
2022-09-15T04:27:55.661Z,956.80
2022-09-15T04:28:55.412Z,956.73
2022-09-15T04:29:55.499Z,956.77
2022-09-15T04:30:55.329Z,956.74
2022-09-15T04:31:55.553Z,956.79
2022-09-15T04:32:55.245Z,956.72
2022-09-15T04:33:55.301Z,956.70
2022-09-15T04:34:55.168Z,956.66
2022-09-15T04:35:55.310Z,956.66
2022-09-15T04:36:55.081Z,956.61
2022-09-15T04:37:55.173Z,956.65
2022-09-15T04:38:54.999Z,956.70
2022-09-15T04:39:55.204Z,956.66
2022-09-15T04:40:54.910Z,956.65
2022-09-15T04:41:54.946Z,956.69
2022-09-15T04:42:54.827Z,956.69
2022-09-15T04:43:55.019Z,956.70
2022-09-15T04:44:54.967Z,956.73
2022-09-15T04:45:54.704Z,956.68
2022-09-15T04:46:54.867Z,956.66
2022-09-15T04:47:54.618Z,956.67
2022-09-15T04:48:54.581Z,956.71
2022-09-15T04:49:54.645Z,956.75
2022-09-15T04:50:54.602Z,956.66
2022-09-15T04:51:54.460Z,956.70
2022-09-15T04:52:54.615Z,956.71
2022-09-15T04:53:54.369Z,956.68
2022-09-15T04:54:54.331Z,956.72
2022-09-15T04:55:54.443Z,956.71
2022-09-15T04:56:54.245Z,956.69
2022-09-15T04:57:54.446Z,956.69
2022-09-15T04:58:54.163Z,956.71
2022-09-15T04:59:54.118Z,956.69
2022-09-15T05:00:54.120Z,956.72
2022-09-15T05:01:54.341Z,956.67
2022-09-15T05:02:53.996Z,956.71
2022-09-15T05:03:54.082Z,956.68
2022-09-15T05:04:53.929Z,956.72
2022-09-15T05:05:54.094Z,956.69
2022-09-15T05:06:53.829Z,956.69
2022-09-15T05:07:53.904Z,956.62
2022-09-15T05:08:53.794Z,956.68
2022-09-15T05:09:53.926Z,956.60
2022-09-15T05:10:53.666Z,956.58
2022-09-15T05:11:53.727Z,956.59
2022-09-15T05:12:53.575Z,956.58
2022-09-15T05:13:53.994Z,956.57
2022-09-15T05:14:53.608Z,956.59
2022-09-15T05:15:53.480Z,956.67
2022-09-15T05:16:53.406Z,956.68
2022-09-15T05:17:53.613Z,956.64
2022-09-15T05:18:53.327Z,956.64
2022-09-15T05:19:53.376Z,956.61
2022-09-15T05:20:53.433Z,956.64
2022-09-15T05:21:53.216Z,956.61
2022-09-15T05:22:53.408Z,956.63
2022-09-15T05:23:53.245Z,956.62
2022-09-15T05:24:53.221Z,956.60
2022-09-15T05:25:53.034Z,956.59
2022-09-15T05:26:53.043Z,956.57
2022-09-15T05:27:54.068Z,956.62
2022-09-15T05:28:52.950Z,956.55
2022-09-15T05:30:09.768Z,956.55
2022-09-15T05:30:53.050Z,956.59
2022-09-15T05:31:52.845Z,956.55
2022-09-15T05:32:53.064Z,956.58
2022-09-15T05:33:52.699Z,956.62
2022-09-15T05:34:52.875Z,956.65
2022-09-15T05:35:52.614Z,956.65
2022-09-15T05:36:52.680Z,956.59
2022-09-15T05:37:52.537Z,956.63
2022-09-15T05:38:52.820Z,956.62
2022-09-15T05:39:52.703Z,956.65
2022-09-15T05:40:52.751Z,956.61
2022-09-15T05:41:52.370Z,956.64
2022-09-15T05:42:52.323Z,956.61
2022-09-15T05:43:52.327Z,956.61
2022-09-15T05:44:52.436Z,956.63
2022-09-15T05:45:52.223Z,956.62
2022-09-15T05:46:52.536Z,956.62
2022-09-15T05:47:52.112Z,956.63
2022-09-15T05:48:52.074Z,956.68
2022-09-15T05:49:52.272Z,956.65
2022-09-15T05:50:51.987Z,956.63
2022-09-15T05:51:53.302Z,956.62
2022-09-15T05:52:51.907Z,956.63
2022-09-15T05:53:52.042Z,956.59
2022-09-15T05:54:54.608Z,956.54
2022-09-15T05:55:51.896Z,956.57
2022-09-15T05:56:51.743Z,956.57
2022-09-15T05:57:51.914Z,956.60
2022-09-15T05:58:51.660Z,956.58
2022-09-15T05:59:51.612Z,956.60
2022-09-15T06:03:46.776Z,956.64
2022-09-15T06:04:46.706Z,956.70
2022-09-15T06:05:46.660Z,956.71
2022-09-15T06:06:46.617Z,956.67
2022-09-15T06:07:46.576Z,956.71
2022-09-15T06:08:48.105Z,956.72
2022-09-15T06:09:46.507Z,956.74
2022-09-15T06:10:46.450Z,956.78
2022-09-15T06:11:46.407Z,956.79
2022-09-15T06:12:46.367Z,956.81
2022-09-15T06:13:46.327Z,956.83
2022-09-15T06:14:46.305Z,956.85
2022-09-15T06:15:46.258Z,956.88
2022-09-15T06:16:46.191Z,956.84
2022-09-15T06:17:46.170Z,956.94
2022-09-15T06:18:46.121Z,956.86
2022-09-15T06:19:46.251Z,956.88
2022-09-15T06:20:46.033Z,956.91
2022-09-15T06:21:45.997Z,956.87
2022-09-15T06:22:45.948Z,956.87
2022-09-15T06:23:50.049Z,956.89
2022-09-15T06:24:45.863Z,956.87
2022-09-15T06:25:45.860Z,956.87
2022-09-15T06:26:45.783Z,956.97
2022-09-15T06:27:45.743Z,957.00
2022-09-15T06:28:45.699Z,957.05
2022-09-15T06:29:45.656Z,957.01
2022-09-15T06:30:45.615Z,957.07
2022-09-15T06:31:45.665Z,957.03
2022-09-15T06:32:48.229Z,957.06
2022-09-15T06:33:45.560Z,957.07
2022-09-15T06:34:45.450Z,957.09
2022-09-15T06:35:45.420Z,957.09
2022-09-15T06:36:45.367Z,957.15
2022-09-15T06:37:45.347Z,957.19
2022-09-15T06:38:45.292Z,957.25
2022-09-15T06:39:45.283Z,957.26
2022-09-15T06:40:45.205Z,957.29
2022-09-15T06:43:16.692Z,957.32
2022-09-15T06:44:16.621Z,957.36
2022-09-15T06:45:16.579Z,957.36
2022-09-15T06:46:16.594Z,957.43
2022-09-15T06:47:16.533Z,957.49
2022-09-15T06:48:24.573Z,957.41
2022-09-15T06:49:16.431Z,957.37
2022-09-15T06:50:16.377Z,957.47
2022-09-15T06:51:16.341Z,957.40
2022-09-15T06:52:16.294Z,957.45
2022-09-15T06:53:16.255Z,957.49
2022-09-15T06:54:16.243Z,957.61
2022-09-15T06:55:16.190Z,957.62
2022-09-15T06:56:16.122Z,957.61
2022-09-15T06:57:16.082Z,957.73
2022-09-15T06:58:16.241Z,957.80
2022-09-15T06:59:15.995Z,957.74
2022-09-15T07:00:15.957Z,957.82
2022-09-15T07:01:15.912Z,957.79
2022-09-15T07:02:16.005Z,957.82
2022-09-15T07:03:15.950Z,957.80
2022-09-15T07:04:15.800Z,957.67
2022-09-15T07:05:15.742Z,957.65
2022-09-15T07:06:15.699Z,957.79
2022-09-15T07:07:15.659Z,957.80
2022-09-15T07:08:15.614Z,957.70
2022-09-15T07:09:15.600Z,957.72
2022-09-15T07:10:15.546Z,957.67
2022-09-15T07:11:15.507Z,957.63
2022-09-15T07:12:15.452Z,957.57
2022-09-15T07:13:15.401Z,957.64
2022-09-15T07:14:15.378Z,957.63
2022-09-15T07:15:15.327Z,957.54
2022-09-15T07:16:15.342Z,957.53
2022-09-15T07:17:15.240Z,957.55
2022-09-15T07:18:15.193Z,957.52
2022-09-15T07:19:15.156Z,957.49
2022-09-15T07:20:15.319Z,957.49
2022-09-15T07:21:15.067Z,957.56
2022-09-15T07:22:15.021Z,957.54
2022-09-15T07:23:14.978Z,957.57
2022-09-15T07:24:14.939Z,957.60
2022-09-15T07:25:14.898Z,957.57
2022-09-15T07:26:14.891Z,957.59
2022-09-15T07:27:14.811Z,957.56
2022-09-15T07:28:14.772Z,957.64
2022-09-15T07:29:14.724Z,957.62
2022-09-15T07:30:14.685Z,957.66
2022-09-15T07:31:14.729Z,957.64
2022-09-15T07:32:14.622Z,957.70
2022-09-15T07:33:14.560Z,957.67
2022-09-15T07:34:14.545Z,957.72
2022-09-15T07:35:14.486Z,957.71
2022-09-15T07:36:14.443Z,957.74
2022-09-15T07:37:14.397Z,957.77
2022-09-15T07:38:14.354Z,957.74
2022-09-15T07:39:14.309Z,957.76
2022-09-15T07:40:14.311Z,957.77
2022-09-15T07:41:14.227Z,957.78
2022-09-15T07:42:15.474Z,957.79
2022-09-15T07:43:14.138Z,957.85
2022-09-15T07:44:14.102Z,957.82
2022-09-15T07:45:14.061Z,957.90
2022-09-15T07:46:14.101Z,957.80
2022-09-15T07:47:13.970Z,957.85
2022-09-15T07:48:13.958Z,957.83
2022-09-15T07:49:13.889Z,957.87
2022-09-15T07:50:13.858Z,957.91
2022-09-15T07:51:13.811Z,957.94
2022-09-15T07:52:13.767Z,957.93
2022-09-15T07:53:13.722Z,957.97
2022-09-15T07:54:14.339Z,958.03
2022-09-15T07:55:13.642Z,958.02
2022-09-15T07:56:13.605Z,958.03
2022-09-15T07:57:13.557Z,958.08
2022-09-15T07:58:22.874Z,958.02
2022-09-15T07:59:23.423Z,957.95
2022-09-15T08:00:22.510Z,957.96
2022-09-15T08:01:22.746Z,958.00
2022-09-15T08:02:13.368Z,957.96
2022-09-15T08:03:22.526Z,957.97
2022-09-15T08:04:13.263Z,957.97
2022-09-15T08:05:21.058Z,958.00
2022-09-15T08:06:13.176Z,957.92
2022-09-15T08:07:21.086Z,957.97
2022-09-15T08:08:13.092Z,958.03
2022-09-15T08:09:13.051Z,958.02
2022-09-15T08:10:13.011Z,958.08
2022-09-15T08:11:22.618Z,958.09
2022-09-15T08:12:22.646Z,958.06
2022-09-15T08:13:12.881Z,958.06
2022-09-15T08:14:23.170Z,958.12
2022-09-15T08:15:12.807Z,958.11
2022-09-15T08:16:12.812Z,958.03
2022-09-15T08:17:22.221Z,958.07
2022-09-15T08:18:12.688Z,958.11
2022-09-15T08:19:21.749Z,958.16
2022-09-15T08:20:12.596Z,958.13
2022-09-15T08:21:12.552Z,958.13
2022-09-15T08:22:12.627Z,958.22
2022-09-15T08:23:12.463Z,958.12
2022-09-15T08:24:12.423Z,958.16
2022-09-15T08:25:12.383Z,958.17
2022-09-15T08:26:14.473Z,958.16
2022-09-15T08:27:12.302Z,958.14
2022-09-15T08:28:12.285Z,958.17
2022-09-15T08:29:12.221Z,958.21
2022-09-15T08:30:12.177Z,958.21
2022-09-15T08:31:12.176Z,958.18
2022-09-15T08:32:12.101Z,958.19
2022-09-15T08:33:12.063Z,958.23
2022-09-15T08:34:12.030Z,958.24
2022-09-15T08:35:11.972Z,958.29
2022-09-15T08:36:11.930Z,958.24
2022-09-15T08:37:11.884Z,958.28
2022-09-15T08:38:11.848Z,958.32
2022-09-15T08:39:11.881Z,958.35
2022-09-15T08:40:11.834Z,958.29
2022-09-15T08:41:11.720Z,958.38
2022-09-15T08:42:11.675Z,958.33
2022-09-15T08:43:11.639Z,958.40
2022-09-15T08:44:11.604Z,958.37
2022-09-15T08:45:11.556Z,958.50
2022-09-15T08:46:11.578Z,958.38
2022-09-15T08:47:11.472Z,958.42
2022-09-15T08:48:11.433Z,958.48
2022-09-15T08:49:11.414Z,958.51
2022-09-15T08:50:11.355Z,958.49
2022-09-15T08:51:11.309Z,958.46
2022-09-15T08:52:11.270Z,958.54
2022-09-15T08:53:11.228Z,958.54
2022-09-15T08:54:11.192Z,958.56
2022-09-15T08:55:11.185Z,958.53
2022-09-15T08:56:11.103Z,958.51
2022-09-15T08:57:11.066Z,958.55
2022-09-15T08:58:11.021Z,958.56
2022-09-15T08:59:10.980Z,958.54
2022-09-15T09:00:10.935Z,958.55
2022-09-15T09:01:11.013Z,958.55
2022-09-15T09:02:10.918Z,958.55
2022-09-15T09:03:10.834Z,958.52
2022-09-15T09:04:10.768Z,958.53
2022-09-15T09:05:10.733Z,958.57
2022-09-15T09:06:10.694Z,958.56
2022-09-15T09:07:10.682Z,958.61
2022-09-15T09:08:10.604Z,958.57
2022-09-15T09:09:10.566Z,958.57
2022-09-15T09:10:10.526Z,958.55
2022-09-15T09:11:10.485Z,958.48
2022-09-15T09:12:10.439Z,958.53
2022-09-15T09:13:10.411Z,958.47
2022-09-15T09:14:10.356Z,958.46
2022-09-15T09:15:10.310Z,958.48
2022-09-15T09:16:10.443Z,958.42
2022-09-15T09:17:10.227Z,958.38
2022-09-15T09:18:10.194Z,958.42
2022-09-15T09:19:10.165Z,958.42
2022-09-15T09:20:10.289Z,958.40
2022-09-15T09:21:10.074Z,958.43
2022-09-15T09:22:10.025Z,958.41
2022-09-15T09:23:09.992Z,958.40
2022-09-15T09:24:09.947Z,958.44
2022-09-15T09:25:26.185Z,958.45
2022-09-15T09:26:10.612Z,958.48
2022-09-15T09:27:09.818Z,958.51
2022-09-15T09:28:09.778Z,958.48
2022-09-15T09:29:09.730Z,958.50
2022-09-15T09:30:09.713Z,958.47
2022-09-15T09:31:09.685Z,958.54
2022-09-15T09:32:09.637Z,958.54
2022-09-15T09:33:09.568Z,958.58
2022-09-15T09:34:09.523Z,958.53
2022-09-15T09:35:09.490Z,958.54
2022-09-15T09:36:09.440Z,958.54
2022-09-15T09:37:09.402Z,958.46
2022-09-15T09:38:09.393Z,958.48
2022-09-15T09:39:09.325Z,958.46
2022-09-15T09:40:09.364Z,958.41
2022-09-15T09:41:09.240Z,958.45
2022-09-15T09:42:09.217Z,958.51
2022-09-15T09:43:09.168Z,958.58
2022-09-15T09:44:09.144Z,958.47
2022-09-15T09:45:09.066Z,958.51
2022-09-15T09:46:09.059Z,958.44
2022-09-15T09:47:09.028Z,958.41
2022-09-15T09:48:08.988Z,958.44
2022-09-15T09:49:08.913Z,958.33
2022-09-15T09:50:08.861Z,958.37
2022-09-15T09:51:08.815Z,958.32
2022-09-15T09:52:08.806Z,958.27
2022-09-15T09:53:08.734Z,958.24
2022-09-15T09:54:08.717Z,958.29
2022-09-15T09:55:08.648Z,958.26
2022-09-15T09:56:08.605Z,958.23
2022-09-15T09:57:08.932Z,958.20
2022-09-15T09:58:08.552Z,958.14
2022-09-15T09:59:08.491Z,958.18
2022-09-15T10:00:08.439Z,958.17
2022-09-15T10:01:08.485Z,958.18
2022-09-15T10:02:08.366Z,958.19
2022-09-15T10:03:08.311Z,958.14
2022-09-15T10:04:08.307Z,958.16
2022-09-15T10:05:08.252Z,958.20
2022-09-15T10:06:08.191Z,958.17
2022-09-15T10:07:08.165Z,958.16
2022-09-15T10:08:08.777Z,958.13
2022-09-15T10:09:08.061Z,958.12
2022-09-15T10:10:08.097Z,958.13
2022-09-15T10:11:07.979Z,958.04
2022-09-15T10:12:07.965Z,958.08
2022-09-15T10:13:07.900Z,958.09
2022-09-15T10:14:07.854Z,958.12
2022-09-15T10:15:07.813Z,958.10
2022-09-15T10:16:07.770Z,958.13
2022-09-15T10:17:07.797Z,958.13
2022-09-15T10:18:07.714Z,958.14
2022-09-15T10:19:07.658Z,958.07
2022-09-15T10:20:07.608Z,958.10
2022-09-15T10:21:07.568Z,958.12
2022-09-15T10:22:07.529Z,958.03
2022-09-15T10:23:07.482Z,958.05
2022-09-15T10:24:07.480Z,958.10
2022-09-15T10:25:07.434Z,958.05
2022-09-15T10:26:07.405Z,958.08
2022-09-15T10:27:07.324Z,958.18
2022-09-15T10:28:07.283Z,958.10
2022-09-15T10:29:07.240Z,958.17
2022-09-15T10:30:07.269Z,958.17
2022-09-15T10:31:07.174Z,958.15
2022-09-15T10:32:07.168Z,958.19
2022-09-15T10:33:07.078Z,958.23
2022-09-15T10:34:07.040Z,958.21
2022-09-15T10:35:07.001Z,958.25
2022-09-15T10:36:06.980Z,958.29
2022-09-15T10:37:06.920Z,958.22
2022-09-15T10:38:06.893Z,958.21
2022-09-15T10:39:06.841Z,958.18
2022-09-15T10:40:06.817Z,958.12
2022-09-15T10:41:06.798Z,958.18
2022-09-15T10:42:06.724Z,958.08
2022-09-15T10:43:06.678Z,958.05
2022-09-15T10:44:06.646Z,958.14
2022-09-15T10:45:06.622Z,958.09
2022-09-15T10:46:06.632Z,958.11
2022-09-15T10:47:06.514Z,958.07
2022-09-15T10:48:06.477Z,958.04
2022-09-15T10:49:06.438Z,958.06
2022-09-15T10:50:06.406Z,958.06
2022-09-15T10:51:06.439Z,958.07
2022-09-15T10:52:06.310Z,958.04
2022-09-15T10:53:06.268Z,958.01
2022-09-15T10:54:06.242Z,958.04
2022-09-15T10:55:06.189Z,957.98
2022-09-15T10:56:06.147Z,957.99
2022-09-15T10:57:06.128Z,958.00
2022-09-15T10:58:06.074Z,958.03
2022-09-15T10:59:06.026Z,957.98
2022-09-15T11:00:05.982Z,958.03
2022-09-15T11:01:05.997Z,958.04
2022-09-15T11:02:05.994Z,958.04
2022-09-15T11:03:05.887Z,958.05
2022-09-15T11:04:05.817Z,958.02
2022-09-15T11:05:13.335Z,958.02
2022-09-15T11:06:05.741Z,958.00
2022-09-15T11:07:13.358Z,958.06
2022-09-15T11:08:14.877Z,958.06
2022-09-15T11:09:05.638Z,958.05
2022-09-15T11:10:05.573Z,958.01
2022-09-15T11:11:05.531Z,958.02
2022-09-15T11:12:05.497Z,958.03
2022-09-15T11:13:05.456Z,958.01
2022-09-15T11:14:05.423Z,958.01
2022-09-15T11:15:05.373Z,958.00
2022-09-15T11:16:15.467Z,958.02
2022-09-15T11:17:14.462Z,957.98
2022-09-15T11:18:05.254Z,957.95
2022-09-15T11:19:05.215Z,957.95
2022-09-15T11:20:05.193Z,957.98
2022-09-15T11:21:05.136Z,958.02
2022-09-15T11:22:05.095Z,958.05
2022-09-15T11:23:05.064Z,958.02
2022-09-15T11:24:05.019Z,958.08
2022-09-15T11:25:04.978Z,958.07
2022-09-15T11:26:04.957Z,957.98
2022-09-15T11:27:04.891Z,958.04
2022-09-15T11:28:04.854Z,958.05
2022-09-15T11:29:04.917Z,958.14
2022-09-15T11:30:04.774Z,958.13
2022-09-15T11:31:04.819Z,958.04
2022-09-15T11:32:04.694Z,958.11
2022-09-15T11:33:04.650Z,958.13
2022-09-15T11:34:04.610Z,958.11
2022-09-15T11:35:04.577Z,958.21
2022-09-15T11:36:04.539Z,958.05
2022-09-15T11:37:04.518Z,958.15
2022-09-15T11:38:04.450Z,958.13
2022-09-15T11:39:04.409Z,958.09
2022-09-15T11:40:04.463Z,958.17
2022-09-15T11:41:04.340Z,958.16
2022-09-15T11:42:04.284Z,958.16
2022-09-15T11:43:04.276Z,958.17
2022-09-15T11:44:04.211Z,958.22
2022-09-15T11:45:04.170Z,958.16
2022-09-15T11:46:04.150Z,958.25
2022-09-15T11:47:04.102Z,958.16
2022-09-15T11:48:04.052Z,958.13
2022-09-15T11:49:04.046Z,958.10
2022-09-15T11:50:03.979Z,958.10
2022-09-15T11:51:03.927Z,958.14
2022-09-15T11:52:03.885Z,958.18
2022-09-15T11:53:03.864Z,958.16
2022-09-15T11:54:03.807Z,958.21
2022-09-15T11:55:03.848Z,958.21
2022-09-15T11:56:03.724Z,958.20
2022-09-15T11:57:03.684Z,958.14
2022-09-15T11:58:03.672Z,958.27
2022-09-15T11:59:03.622Z,958.20
2022-09-15T12:00:03.572Z,958.19
2022-09-15T12:01:03.566Z,958.23
2022-09-15T12:02:03.573Z,958.14
2022-09-15T12:03:03.510Z,958.22
2022-09-15T12:04:03.402Z,958.20
2022-09-15T12:05:03.374Z,958.17
2022-09-15T12:06:03.324Z,958.22
2022-09-15T12:07:03.295Z,958.21
2022-09-15T12:08:03.243Z,958.20
2022-09-15T12:09:03.204Z,958.15
2022-09-15T12:10:03.172Z,958.09
2022-09-15T12:11:03.151Z,958.05
2022-09-15T12:12:03.111Z,958.07
2022-09-15T12:13:03.219Z,958.05
2022-09-15T12:14:03.002Z,958.09
2022-09-15T12:15:02.962Z,958.12
2022-09-15T12:16:03.018Z,958.10
2022-09-15T12:17:02.878Z,958.17
2022-09-15T12:18:06.604Z,958.19
2022-09-15T12:19:02.832Z,958.10
2022-09-15T12:20:02.762Z,958.10
2022-09-15T12:21:02.722Z,958.17
2022-09-15T12:22:11.997Z,958.18
2022-09-15T12:23:02.646Z,958.18
2022-09-15T12:24:02.601Z,958.11
2022-09-15T12:25:02.627Z,958.18
2022-09-15T12:26:02.514Z,958.16
2022-09-15T12:27:02.477Z,958.13
2022-09-15T12:28:02.439Z,958.15
2022-09-15T12:29:02.519Z,958.19
2022-09-15T12:30:02.361Z,958.23
2022-09-15T12:31:02.366Z,958.18
2022-09-15T12:32:02.281Z,958.21